createdAt,value
2017-11-30T00:01:58.886Z,30.50
2017-11-30T00:04:26.446Z,32.03
2017-11-30T00:06:53.982Z,28.92
2017-11-30T00:09:22.312Z,30.90
2017-11-30T00:11:49.871Z,31.37
2017-11-30T00:14:17.416Z,28.98
2017-11-30T00:16:44.986Z,32.00
2017-11-30T00:19:12.547Z,30.20
2017-11-30T00:21:40.118Z,31.37
2017-11-30T00:24:07.661Z,29.20
2017-11-30T00:26:35.223Z,29.92
2017-11-30T00:29:02.776Z,31.15
2017-11-30T00:31:31.095Z,30.80
2017-11-30T00:33:58.675Z,31.50
2017-11-30T00:36:26.209Z,29.02
2017-11-30T00:38:53.753Z,27.65
2017-11-30T00:41:21.291Z,30.98
2017-11-30T00:43:49.643Z,30.20
2017-11-30T00:46:17.198Z,29.63
2017-11-30T00:48:44.738Z,30.92
2017-11-30T00:51:12.323Z,29.25
2017-11-30T00:53:39.863Z,31.08
2017-11-30T00:56:07.394Z,28.90
2017-11-30T00:58:34.959Z,31.17
2017-11-30T01:01:02.495Z,30.75
2017-11-30T01:03:30.818Z,29.92
2017-11-30T01:05:58.378Z,32.20
2017-11-30T01:08:25.934Z,28.52
2017-11-30T01:10:53.470Z,30.58
2017-11-30T01:13:21.807Z,31.27
2017-11-30T01:15:49.339Z,30.92
2017-11-30T01:18:16.915Z,30.77
2017-11-30T01:20:44.460Z,32.35
2017-11-30T01:23:12.077Z,33.17
2017-11-30T01:25:39.629Z,33.97
2017-11-30T01:28:07.181Z,35.03
2017-11-30T01:30:34.751Z,30.73
2017-11-30T01:33:02.311Z,33.10
2017-11-30T01:35:29.868Z,31.12
2017-11-30T01:37:57.448Z,30.70
2017-11-30T01:40:25.756Z,28.75
2017-11-30T01:42:53.343Z,31.75
2017-11-30T01:45:20.875Z,29.85
2017-11-30T01:47:49.180Z,32.25
2017-11-30T01:50:16.734Z,29.55
2017-11-30T01:52:44.273Z,28.30
2017-11-30T01:55:12.575Z,30.23
2017-11-30T01:57:40.141Z,28.85
2017-11-30T02:00:07.675Z,26.70
2017-11-30T02:02:35.993Z,30.10
2017-11-30T02:05:03.578Z,29.10
2017-11-30T02:07:31.136Z,27.92
2017-11-30T02:09:58.688Z,27.75
2017-11-30T02:12:26.266Z,29.95
2017-11-30T02:14:53.816Z,28.98
2017-11-30T02:17:21.409Z,27.83
2017-11-30T02:19:49.788Z,26.02
2017-11-30T02:22:18.242Z,28.15
2017-11-30T02:24:45.857Z,28.17
2017-11-30T02:27:13.411Z,28.45
2017-11-30T02:29:41.728Z,28.20
2017-11-30T02:32:09.287Z,28.50
2017-11-30T02:34:36.836Z,29.50
2017-11-30T02:37:04.409Z,27.50
2017-11-30T02:39:32.037Z,27.60
2017-11-30T02:42:00.366Z,28.55
2017-11-30T02:44:28.126Z,30.17
2017-11-30T02:46:55.718Z,28.85
2017-11-30T02:49:23.281Z,30.77
2017-11-30T02:51:50.874Z,29.35
2017-11-30T02:54:19.174Z,30.92
2017-11-30T02:56:47.492Z,28.75
2017-11-30T02:59:15.054Z,30.33
2017-11-30T03:01:42.590Z,28.75
2017-11-30T03:04:10.135Z,28.90
2017-11-30T03:06:37.700Z,31.67
2017-11-30T03:09:05.254Z,29.50
2017-11-30T03:11:32.804Z,27.42
2017-11-30T03:14:01.128Z,30.40
2017-11-30T03:16:28.666Z,30.45
2017-11-30T03:18:56.261Z,29.83
2017-11-30T03:21:23.807Z,31.50
2017-11-30T03:23:51.347Z,32.33
2017-11-30T03:26:18.918Z,31.65
2017-11-30T03:28:46.474Z,32.15
2017-11-30T03:31:14.043Z,30.77
2017-11-30T03:33:41.577Z,30.92
2017-11-30T03:36:09.906Z,34.20
2017-11-30T03:38:37.441Z,33.35
2017-11-30T03:41:04.982Z,32.05
2017-11-30T03:46:07.198Z,31.73
2017-11-30T03:48:34.773Z,33.83
2017-11-30T03:51:02.326Z,31.33
2017-11-30T03:53:29.915Z,32.53
2017-11-30T03:55:57.465Z,31.75
2017-11-30T03:58:25.010Z,35.47
2017-11-30T04:00:52.580Z,32.35
2017-11-30T04:03:20.133Z,33.15
2017-11-30T04:05:47.695Z,32.20
2017-11-30T04:08:15.239Z,34.22
2017-11-30T04:10:42.802Z,34.75
2017-11-30T04:13:10.343Z,34.17
2017-11-30T04:15:38.639Z,34.15
2017-11-30T04:18:06.221Z,33.55
2017-11-30T04:20:33.752Z,34.13
2017-11-30T04:23:01.303Z,33.55
2017-11-30T04:25:29.622Z,33.58
2017-11-30T04:27:57.197Z,33.35
2017-11-30T04:30:24.726Z,32.38
2017-11-30T04:32:52.286Z,35.60
2017-11-30T04:35:19.848Z,34.70
2017-11-30T04:37:47.396Z,34.42
2017-11-30T04:40:15.726Z,36.30
2017-11-30T04:42:43.282Z,35.30
2017-11-30T04:45:10.822Z,33.35
2017-11-30T04:47:38.391Z,35.17
2017-11-30T04:50:05.930Z,37.15
2017-11-30T04:52:33.502Z,35.17
2017-11-30T04:55:01.053Z,36.30
2017-11-30T04:57:28.622Z,38.40
2017-11-30T04:59:56.177Z,37.20
2017-11-30T05:02:23.718Z,36.78
2017-11-30T05:04:52.060Z,36.42
2017-11-30T05:07:19.612Z,40.50
2017-11-30T05:09:47.178Z,42.22
2017-11-30T05:12:14.713Z,37.83
2017-11-30T05:14:42.293Z,40.10
2017-11-30T05:17:09.836Z,37.67
2017-11-30T05:19:37.394Z,39.75
2017-11-30T05:22:04.962Z,42.70
2017-11-30T05:24:32.493Z,42.33
2017-11-30T05:27:00.834Z,43.20
2017-11-30T05:29:29.138Z,40.45
2017-11-30T05:31:56.709Z,42.22
2017-11-30T05:34:25.013Z,41.53
2017-11-30T05:36:52.549Z,43.03
2017-11-30T05:39:20.868Z,40.30
2017-11-30T05:41:48.398Z,40.97
2017-11-30T05:44:16.722Z,37.53
2017-11-30T05:46:44.253Z,41.58
2017-11-30T05:49:11.835Z,41.37
2017-11-30T05:51:39.389Z,42.10
2017-11-30T05:54:06.942Z,41.22
2017-11-30T05:56:34.522Z,38.75
2017-11-30T05:59:02.056Z,39.83
2017-11-30T06:01:30.379Z,38.60
2017-11-30T06:03:57.946Z,37.47
2017-11-30T06:06:25.507Z,38.75
2017-11-30T06:08:53.046Z,40.40
2017-11-30T06:11:20.581Z,38.47
2017-11-30T06:13:48.163Z,39.78
2017-11-30T06:16:15.729Z,38.40
2017-11-30T06:18:43.320Z,36.58
2017-11-30T06:21:10.894Z,39.72
2017-11-30T06:23:38.454Z,36.08
2017-11-30T06:26:06.001Z,35.42
2017-11-30T06:28:33.540Z,37.17
2017-11-30T06:31:01.128Z,36.30
2017-11-30T06:33:28.676Z,35.20
2017-11-30T06:35:56.231Z,37.20
2017-11-30T06:38:23.791Z,37.83
2017-11-30T06:40:51.373Z,33.75
2017-11-30T06:43:18.933Z,38.05
2017-11-30T06:45:46.467Z,34.15
2017-11-30T06:48:14.042Z,34.13
2017-11-30T06:50:41.574Z,31.55
2017-11-30T06:53:09.147Z,32.50
2017-11-30T06:55:36.681Z,34.00
2017-11-30T06:58:05.029Z,33.97
2017-11-30T07:00:32.583Z,32.17
2017-11-30T07:03:00.129Z,30.00
2017-11-30T07:05:27.693Z,34.88
2017-11-30T07:07:55.254Z,37.03
2017-11-30T07:10:22.814Z,34.60
2017-11-30T07:12:50.389Z,32.42
2017-11-30T07:15:18.761Z,32.63
2017-11-30T07:17:46.316Z,33.20
2017-11-30T07:20:13.875Z,36.63
2017-11-30T07:22:41.440Z,33.35
2017-11-30T07:25:08.975Z,34.95
2017-11-30T07:27:36.532Z,31.75
2017-11-30T07:30:04.098Z,31.83
2017-11-30T07:32:31.658Z,31.50
2017-11-30T07:34:59.194Z,35.28
2017-11-30T07:37:27.522Z,32.70
2017-11-30T07:39:55.064Z,30.73
2017-11-30T07:42:22.636Z,31.98
2017-11-30T07:44:50.166Z,32.90
2017-11-30T07:47:18.489Z,30.52
2017-11-30T07:49:46.037Z,31.73
2017-11-30T07:52:13.576Z,30.15
2017-11-30T07:54:41.926Z,29.48
2017-11-30T07:57:09.475Z,29.17
2017-11-30T07:59:37.002Z,30.00
2017-11-30T08:02:04.574Z,30.85
2017-11-30T08:04:32.132Z,29.55
2017-11-30T08:06:59.676Z,28.35
2017-11-30T08:09:27.244Z,27.42
2017-11-30T08:11:54.797Z,25.90
2017-11-30T08:14:22.355Z,26.77
2017-11-30T08:16:49.897Z,25.58
2017-11-30T08:19:18.236Z,28.58
2017-11-30T08:21:45.785Z,28.87
2017-11-30T08:24:13.365Z,27.17
2017-11-30T08:26:40.953Z,23.75
2017-11-30T08:29:08.499Z,25.85
2017-11-30T08:31:36.052Z,22.92
2017-11-30T08:34:03.606Z,24.40
2017-11-30T08:36:31.157Z,25.00
2017-11-30T08:38:58.710Z,25.02
2017-11-30T08:41:26.289Z,24.30
2017-11-30T08:43:53.858Z,23.23
2017-11-30T08:46:22.166Z,24.52
2017-11-30T08:48:50.523Z,23.50
2017-11-30T08:51:18.080Z,22.30
2017-11-30T08:53:45.629Z,22.13
2017-11-30T08:56:13.204Z,21.25
2017-11-30T08:58:40.728Z,21.77
2017-11-30T09:01:08.264Z,20.83
2017-11-30T09:03:36.613Z,22.05
2017-11-30T09:06:04.185Z,23.27
2017-11-30T09:08:31.733Z,19.95
2017-11-30T09:10:59.636Z,20.67
2017-11-30T09:13:27.985Z,22.05
2017-11-30T09:15:56.300Z,20.77
2017-11-30T09:18:24.666Z,19.52
2017-11-30T09:20:52.211Z,18.67
2017-11-30T09:23:19.748Z,18.58
2017-11-30T09:25:47.329Z,18.52
2017-11-30T09:28:14.866Z,18.92
2017-11-30T09:30:42.401Z,17.90
2017-11-30T09:33:09.981Z,17.90
2017-11-30T09:35:37.540Z,17.00
2017-11-30T09:38:05.100Z,16.52
2017-11-30T09:40:32.677Z,17.87
2017-11-30T09:43:00.227Z,15.77
2017-11-30T09:45:27.763Z,16.20
2017-11-30T09:47:56.097Z,15.68
2017-11-30T09:50:23.644Z,15.93
2017-11-30T09:52:51.208Z,16.40
2017-11-30T09:55:18.774Z,15.77
2017-11-30T09:57:46.311Z,17.58
2017-11-30T10:00:13.867Z,15.05
2017-11-30T10:02:41.418Z,15.77
2017-11-30T10:05:09.731Z,16.45
2017-11-30T10:07:37.290Z,18.20
2017-11-30T10:10:04.873Z,20.25
2017-11-30T10:12:32.409Z,16.73
2017-11-30T10:14:59.959Z,15.60
2017-11-30T10:17:27.521Z,17.92
2017-11-30T10:19:55.094Z,16.35
2017-11-30T10:22:22.626Z,16.80
2017-11-30T10:24:50.161Z,17.70
2017-11-30T10:27:17.746Z,16.85
2017-11-30T10:29:45.345Z,15.65
2017-11-30T10:32:12.972Z,18.42
2017-11-30T10:34:42.189Z,17.12
2017-11-30T10:37:09.733Z,16.83
2017-11-30T10:39:38.051Z,16.90
2017-11-30T10:42:05.609Z,17.95
2017-11-30T10:44:33.164Z,17.87
2017-11-30T10:47:00.710Z,18.92
2017-11-30T10:49:28.263Z,16.90
2017-11-30T10:51:56.574Z,18.35
2017-11-30T10:54:24.152Z,17.17
2017-11-30T10:56:51.683Z,17.25
2017-11-30T10:59:19.241Z,19.30
2017-11-30T11:01:46.809Z,18.73
2017-11-30T11:04:14.361Z,17.52
2017-11-30T11:06:41.889Z,18.30
2017-11-30T11:09:09.460Z,18.80
2017-11-30T11:11:37.780Z,17.25
2017-11-30T11:14:05.318Z,17.65
2017-11-30T11:16:32.904Z,18.70
2017-11-30T11:19:00.444Z,17.75
2017-11-30T11:21:27.992Z,15.32
2017-11-30T11:23:56.367Z,16.95
2017-11-30T11:26:24.701Z,18.77
2017-11-30T11:28:52.260Z,18.58
2017-11-30T11:31:19.831Z,17.45
2017-11-30T11:33:48.153Z,19.62
2017-11-30T11:36:16.458Z,16.23
2017-11-30T11:38:44.034Z,18.33
2017-11-30T11:41:11.562Z,16.92
2017-11-30T11:43:39.877Z,19.02
2017-11-30T11:46:07.434Z,16.48
2017-11-30T11:48:34.986Z,18.87
2017-11-30T11:51:02.522Z,19.85
2017-11-30T11:53:31.701Z,19.52
2017-11-30T11:55:59.253Z,18.20
2017-11-30T11:58:26.782Z,20.50
2017-11-30T12:00:54.357Z,18.85
2017-11-30T12:03:21.906Z,19.33
2017-11-30T12:05:49.495Z,17.75
2017-11-30T12:08:17.024Z,16.50
2017-11-30T12:10:44.577Z,17.37
2017-11-30T12:13:12.150Z,16.45
2017-11-30T12:15:39.701Z,15.35
2017-11-30T12:18:07.238Z,15.38
2017-11-30T12:20:35.592Z,15.48
2017-11-30T12:23:03.123Z,14.75
2017-11-30T12:25:30.699Z,13.95
2017-11-30T12:27:58.245Z,15.65
2017-11-30T12:30:25.828Z,15.23
2017-11-30T12:32:53.382Z,13.75
2017-11-30T12:35:20.933Z,11.88
2017-11-30T12:37:48.509Z,13.70
2017-11-30T12:40:16.059Z,14.75
2017-11-30T12:42:43.614Z,12.60
2017-11-30T12:45:11.202Z,12.73
2017-11-30T12:47:38.852Z,12.55
2017-11-30T12:50:06.396Z,14.80
2017-11-30T12:52:33.976Z,14.15
2017-11-30T12:55:01.523Z,13.23
2017-11-30T12:57:29.074Z,14.05
2017-11-30T12:59:56.642Z,15.80
2017-11-30T13:02:24.177Z,16.30
2017-11-30T13:04:52.483Z,14.52
2017-11-30T13:07:20.068Z,12.32
2017-11-30T13:09:47.623Z,12.80
2017-11-30T13:12:15.152Z,9.70
2017-11-30T13:14:42.722Z,9.65
2017-11-30T13:17:10.258Z,10.65
2017-11-30T13:19:38.559Z,7.60
2017-11-30T13:22:06.118Z,8.90
2017-11-30T13:24:33.652Z,10.00
2017-11-30T13:27:01.960Z,7.97
2017-11-30T13:29:29.516Z,9.30
2017-11-30T13:31:57.056Z,8.90
2017-11-30T13:34:25.479Z,9.00
2017-11-30T13:36:53.045Z,9.90
2017-11-30T13:39:20.600Z,9.45
2017-11-30T13:41:48.151Z,9.65
2017-11-30T13:44:15.706Z,9.85
2017-11-30T13:46:43.252Z,10.20
2017-11-30T13:49:11.541Z,8.35
2017-11-30T13:51:39.116Z,8.80
2017-11-30T13:54:06.665Z,8.35
2017-11-30T13:56:34.194Z,8.80
2017-11-30T13:59:01.782Z,8.45
2017-11-30T14:01:29.320Z,9.18
2017-11-30T14:03:56.845Z,9.27
2017-11-30T14:06:24.402Z,8.68
2017-11-30T14:08:51.926Z,9.65
2017-11-30T14:11:20.239Z,9.07
2017-11-30T14:13:47.824Z,10.15
2017-11-30T14:16:15.384Z,10.00
2017-11-30T14:18:42.946Z,10.98
2017-11-30T14:21:11.265Z,10.70
2017-11-30T14:23:39.584Z,11.35
2017-11-30T14:26:07.147Z,11.65
2017-11-30T14:28:34.704Z,10.65
2017-11-30T14:31:02.263Z,10.63
2017-11-30T14:33:29.802Z,10.02
2017-11-30T14:35:58.152Z,8.80
2017-11-30T14:38:25.676Z,8.73
2017-11-30T14:40:53.202Z,8.70
2017-11-30T14:43:20.786Z,8.02
2017-11-30T14:45:48.327Z,7.97
2017-11-30T14:48:15.880Z,7.85
2017-11-30T14:50:44.205Z,7.80
2017-11-30T14:53:11.755Z,7.37
2017-11-30T14:55:39.285Z,8.30
2017-11-30T14:58:07.620Z,8.57
2017-11-30T15:00:35.159Z,8.40
2017-11-30T15:03:02.688Z,7.95
2017-11-30T15:05:31.008Z,8.60
2017-11-30T15:07:58.544Z,8.70
2017-11-30T15:10:26.087Z,7.80
2017-11-30T15:12:54.424Z,7.53
2017-11-30T15:15:21.946Z,6.35
2017-11-30T15:17:49.481Z,7.60
2017-11-30T15:20:17.796Z,7.22
2017-11-30T15:22:45.318Z,7.03
2017-11-30T15:25:13.620Z,6.85
2017-11-30T15:27:42.384Z,7.80
2017-11-30T15:30:10.691Z,7.87
2017-11-30T15:32:38.259Z,7.90
2017-11-30T15:35:05.803Z,7.50
2017-11-30T15:37:33.333Z,6.37
2017-11-30T15:40:00.906Z,7.80
2017-11-30T15:42:28.446Z,7.32
2017-11-30T15:44:55.972Z,7.85
2017-11-30T15:47:23.555Z,8.18
2017-11-30T15:49:51.091Z,7.00
2017-11-30T15:52:18.612Z,6.95
2017-11-30T15:54:46.187Z,6.68
2017-11-30T15:57:14.477Z,7.20
2017-11-30T15:59:42.760Z,8.90
2017-11-30T16:02:10.309Z,8.38
2017-11-30T16:04:38.617Z,8.55
2017-11-30T16:07:06.167Z,9.07
2017-11-30T16:09:33.718Z,9.38
2017-11-30T16:12:01.304Z,10.38
2017-11-30T16:14:28.841Z,8.93
2017-11-30T16:16:57.178Z,9.55
2017-11-30T16:19:24.719Z,9.80
2017-11-30T16:21:52.258Z,10.15
2017-11-30T16:24:19.841Z,11.30
2017-11-30T16:26:47.377Z,10.85
2017-11-30T16:29:14.932Z,9.93
2017-11-30T16:31:42.485Z,10.75
2017-11-30T16:34:10.799Z,11.75
2017-11-30T16:36:38.385Z,10.30
2017-11-30T16:39:05.939Z,11.48
2017-11-30T16:41:33.477Z,12.02
2017-11-30T16:44:01.033Z,10.52
2017-11-30T16:46:28.565Z,10.02
2017-11-30T16:48:56.892Z,10.50
2017-11-30T16:51:24.445Z,11.40
2017-11-30T16:53:51.996Z,13.13
2017-11-30T16:56:23.496Z,15.23
2017-11-30T16:58:51.040Z,12.10
2017-11-30T17:01:18.592Z,14.40
2017-11-30T17:03:46.152Z,12.95
2017-11-30T17:06:13.682Z,11.40
2017-11-30T17:08:41.689Z,10.82
2017-11-30T17:11:09.365Z,11.52
2017-11-30T17:13:36.889Z,12.85
2017-11-30T17:16:04.472Z,13.43
2017-11-30T17:18:32.058Z,13.60
2017-11-30T17:20:59.594Z,14.90
2017-11-30T17:23:27.154Z,16.75
2017-11-30T17:25:54.759Z,17.33
2017-11-30T17:28:23.103Z,18.27
2017-11-30T17:30:50.684Z,18.02
2017-11-30T17:33:18.281Z,19.35
2017-11-30T17:35:46.636Z,19.62
2017-11-30T17:38:14.196Z,21.80
2017-11-30T17:40:41.786Z,20.35
2017-11-30T17:43:10.099Z,18.95
2017-11-30T17:45:37.667Z,19.20
2017-11-30T17:48:05.266Z,20.65
2017-11-30T17:50:32.826Z,20.17
2017-11-30T17:53:00.383Z,20.40
2017-11-30T17:55:32.507Z,21.33
2017-11-30T17:58:00.051Z,21.55
2017-11-30T18:00:28.381Z,24.92
2017-11-30T18:02:55.944Z,28.45
2017-11-30T18:05:23.487Z,24.65
2017-11-30T18:07:51.041Z,27.85
2017-11-30T18:10:18.586Z,24.80
2017-11-30T18:12:46.164Z,27.87
2017-11-30T18:15:13.710Z,23.35
2017-11-30T18:17:41.269Z,26.52
2017-11-30T18:20:08.809Z,27.17
2017-11-30T18:22:37.208Z,24.50
2017-11-30T18:25:04.796Z,22.67
2017-11-30T18:27:32.339Z,24.35
2017-11-30T18:29:59.892Z,23.67
2017-11-30T18:32:28.234Z,23.50
2017-11-30T18:34:55.778Z,23.87
2017-11-30T18:37:23.309Z,22.15
2017-11-30T18:39:50.868Z,22.08
2017-11-30T18:42:18.399Z,23.85
2017-11-30T18:44:46.701Z,23.15
2017-11-30T18:47:14.351Z,21.65
2017-11-30T18:49:42.661Z,22.67
2017-11-30T18:52:10.231Z,24.35
2017-11-30T18:54:37.775Z,23.02
2017-11-30T18:57:05.321Z,22.25
2017-11-30T18:59:33.647Z,25.08
2017-11-30T19:02:01.183Z,23.15
2017-11-30T19:04:28.762Z,24.17
2017-11-30T19:06:56.319Z,25.58
2017-11-30T19:09:23.865Z,23.25
2017-11-30T19:11:51.421Z,24.37
2017-11-30T19:14:18.977Z,22.35
2017-11-30T19:16:46.563Z,24.87
2017-11-30T19:19:14.111Z,23.30
2017-11-30T19:21:41.676Z,24.12
2017-11-30T19:24:09.248Z,40.67
2017-11-30T19:26:36.790Z,36.55
2017-11-30T19:29:04.323Z,32.03
2017-11-30T19:31:32.656Z,30.25
2017-11-30T19:34:00.210Z,31.45
2017-11-30T19:36:27.762Z,27.95
2017-11-30T19:38:55.327Z,25.10
2017-11-30T19:41:22.876Z,23.70
2017-11-30T19:43:50.427Z,25.90
2017-11-30T19:46:18.753Z,23.87
2017-11-30T19:48:46.308Z,24.98
2017-11-30T19:51:13.855Z,22.75
2017-11-30T19:53:41.411Z,21.60
2017-11-30T19:56:08.953Z,21.90
2017-11-30T19:58:36.545Z,19.73
2017-11-30T20:01:04.073Z,22.95
2017-11-30T20:03:32.369Z,21.15
2017-11-30T20:05:59.953Z,20.67
2017-11-30T20:08:27.507Z,21.15
2017-11-30T20:10:55.053Z,20.02
2017-11-30T20:13:22.597Z,22.85
2017-11-30T20:15:50.892Z,21.35
2017-11-30T20:18:18.472Z,19.60
2017-11-30T20:20:46.006Z,19.58
2017-11-30T20:23:14.298Z,21.58
2017-11-30T20:25:41.873Z,21.02
2017-11-30T20:28:09.426Z,21.17
2017-11-30T20:30:37.025Z,18.92
2017-11-30T20:33:04.596Z,19.25
2017-11-30T20:35:32.147Z,19.35
2017-11-30T20:37:59.717Z,19.23
2017-11-30T20:40:27.263Z,19.15
2017-11-30T20:42:54.821Z,20.80
2017-11-30T20:45:23.119Z,18.92
2017-11-30T20:47:50.652Z,19.85
2017-11-30T20:50:18.247Z,19.48
2017-11-30T20:52:45.785Z,21.08
2017-11-30T20:55:13.332Z,19.65
2017-11-30T20:57:40.905Z,18.87
2017-11-30T21:00:08.455Z,18.35
2017-11-30T21:02:36.014Z,19.27
2017-11-30T21:05:03.599Z,18.90
2017-11-30T21:07:31.162Z,19.15
2017-11-30T21:09:58.871Z,19.58
2017-11-30T21:12:27.217Z,19.02
2017-11-30T21:14:54.799Z,18.52
2017-11-30T21:17:23.125Z,18.27
2017-11-30T21:19:50.658Z,19.00
2017-11-30T21:22:18.993Z,20.70
2017-11-30T21:24:46.530Z,18.58
2017-11-30T21:27:14.081Z,19.12
2017-11-30T21:29:41.666Z,18.87
2017-11-30T21:32:09.197Z,19.33
2017-11-30T21:34:36.814Z,18.23
2017-11-30T21:37:04.318Z,19.70
2017-11-30T21:39:31.860Z,20.12
2017-11-30T21:42:00.179Z,18.85
2017-11-30T21:44:27.734Z,19.98
2017-11-30T21:46:55.279Z,18.80
2017-11-30T21:49:22.806Z,18.73
2017-11-30T21:51:50.371Z,19.65
2017-11-30T21:54:17.919Z,19.67
2017-11-30T21:56:45.483Z,19.80
2017-11-30T21:59:13.013Z,19.77
2017-11-30T22:01:40.568Z,19.83
2017-11-30T22:04:08.111Z,20.52
2017-11-30T22:06:35.636Z,20.23
2017-11-30T22:09:03.190Z,20.62
2017-11-30T22:11:30.740Z,19.67
2017-11-30T22:13:58.317Z,21.80
2017-11-30T22:16:25.861Z,20.83
2017-11-30T22:18:53.397Z,21.25
2017-11-30T22:21:20.980Z,21.15
2017-11-30T22:23:48.524Z,21.73
2017-11-30T22:26:16.077Z,20.80
2017-11-30T22:28:43.660Z,21.02
2017-11-30T22:31:11.209Z,19.60
2017-11-30T22:33:38.773Z,20.70
2017-11-30T22:36:06.357Z,19.75
2017-11-30T22:38:33.907Z,21.50
2017-11-30T22:41:01.446Z,22.13
2017-11-30T22:43:29.008Z,23.12
2017-11-30T22:45:56.541Z,22.55
2017-11-30T22:48:24.879Z,21.77
2017-11-30T22:50:52.431Z,20.23
2017-11-30T22:53:19.988Z,20.98
2017-11-30T22:55:47.543Z,20.42
2017-11-30T22:58:15.090Z,22.73
2017-11-30T23:00:42.637Z,21.95
2017-11-30T23:03:10.962Z,21.70
2017-11-30T23:05:39.271Z,19.92
2017-11-30T23:08:06.800Z,20.90
2017-11-30T23:10:34.368Z,21.58
2017-11-30T23:13:01.916Z,20.33
2017-11-30T23:15:29.445Z,20.25
2017-11-30T23:17:57.765Z,18.80
2017-11-30T23:20:25.307Z,19.80
2017-11-30T23:22:52.873Z,18.73
2017-11-30T23:25:20.431Z,19.73
2017-11-30T23:27:47.986Z,19.95
2017-11-30T23:30:15.510Z,20.27
2017-11-30T23:32:43.836Z,19.70
2017-11-30T23:35:11.360Z,19.20
2017-11-30T23:37:39.673Z,19.27
2017-11-30T23:40:07.220Z,19.80
2017-11-30T23:42:34.754Z,20.08
2017-11-30T23:45:03.079Z,21.95
2017-11-30T23:47:30.623Z,21.20
2017-11-30T23:49:58.203Z,19.92
2017-11-30T23:52:25.750Z,20.95
2017-11-30T23:54:53.294Z,19.95
2017-11-30T23:57:21.605Z,19.73
2017-11-30T23:59:49.134Z,21.08
